KPUC/PUC METAR and TAF weather

Enter ICAO airport designator
Station Type Date Time Source
KPUC METAR 2018/12/12 06:53 UTC NOAA

KPUC 120653Z AUTO 02007KT 10SM CLR M06/M07 A3011 RMK AO2 SLP235 T10561072 400501072


Station Type Date Time Source
KPUC Decoded METAR 2018/12/12 06:53 UTC NOAA

PRICE CARBON COUNTY AIRPORT, UT, United States (KPUC) 39-37N 110-45W 2091M
Dec 12, 2018 - 01:53 AM EST / 2018.12.12 0653 UTC
Wind: from the NNE (020 degrees) at 8 MPH (7 KT):0
Visibility: 10 mile(s):0
Sky conditions: clear
Temperature: 21.9 F (-5.6 C)
Windchill: 12 F (-11 C):1
Dew Point: 19.0 F (-7.2 C)
Relative Humidity: 88%
Pressure (altimeter): 30.11 in. Hg (1019 hPa)
ob: KPUC 120653Z AUTO 02007KT 10SM CLR M06/M07 A3011 RMK AO2 SLP235 T10561072 400501072
cycle: 7

Station Type Date Time Source
KPUC TAF UTC NOAA

Error!


Example: see airport list